sensor_id;sensor_type;location;lat;lon;timestamp;pressure;altitude;pressure_sealevel;temperature;humidity
8140;BME280;4111;50.972;7.072;2022-12-18T00:01:19;102425.53;;;-3.35;87.58
8140;BME280;4111;50.972;7.072;2022-12-18T00:03:46;102424.56;;;-3.34;87.52
8140;BME280;4111;50.972;7.072;2022-12-18T00:06:13;102425.19;;;-3.31;87.47
8140;BME280;4111;50.972;7.072;2022-12-18T00:08:41;102421.25;;;-3.25;87.49
8140;BME280;4111;50.972;7.072;2022-12-18T00:11:11;102425.81;;;-3.27;87.02
8140;BME280;4111;50.972;7.072;2022-12-18T00:13:38;102426.56;;;-3.25;87.26
8140;BME280;4111;50.972;7.072;2022-12-18T00:16:16;102425.81;;;-3.27;86.98
8140;BME280;4111;50.972;7.072;2022-12-18T00:18:46;102429.84;;;-3.22;86.83
8140;BME280;4111;50.972;7.072;2022-12-18T00:21:14;102436.00;;;-3.21;87.03
8140;BME280;4111;50.972;7.072;2022-12-18T00:23:42;102444.63;;;-3.30;86.86
8140;BME280;4111;50.972;7.072;2022-12-18T00:26:17;102432.59;;;-3.23;86.69
8140;BME280;4111;50.972;7.072;2022-12-18T00:28:44;102448.28;;;-3.20;86.59
8140;BME280;4111;50.972;7.072;2022-12-18T00:31:14;102439.38;;;-3.19;86.55
8140;BME280;4111;50.972;7.072;2022-12-18T00:33:41;102441.50;;;-3.24;86.35
8140;BME280;4111;50.972;7.072;2022-12-18T00:36:17;102444.69;;;-3.19;86.73
8140;BME280;4111;50.972;7.072;2022-12-18T00:38:44;102442.75;;;-3.17;86.30
8140;BME280;4111;50.972;7.072;2022-12-18T00:41:13;102450.38;;;-3.12;86.77
8140;BME280;4111;50.972;7.072;2022-12-18T00:43:40;102447.63;;;-3.11;86.04
8140;BME280;4111;50.972;7.072;2022-12-18T00:46:07;102442.81;;;-3.06;86.34
8140;BME280;4111;50.972;7.072;2022-12-18T00:48:34;102438.69;;;-3.10;86.06
8140;BME280;4111;50.972;7.072;2022-12-18T00:51:01;102431.84;;;-3.01;85.77
8140;BME280;4111;50.972;7.072;2022-12-18T00:53:27;102428.38;;;-3.14;85.81
8140;BME280;4111;50.972;7.072;2022-12-18T00:55:54;102428.63;;;-3.17;85.41
8140;BME280;4111;50.972;7.072;2022-12-18T00:58:20;102426.09;;;-3.19;85.65
8140;BME280;4111;50.972;7.072;2022-12-18T01:00:47;102420.03;;;-3.21;85.62
8140;BME280;4111;50.972;7.072;2022-12-18T01:03:13;102424.69;;;-3.12;86.05
8140;BME280;4111;50.972;7.072;2022-12-18T01:05:42;102419.59;;;-3.15;85.46
8140;BME280;4111;50.972;7.072;2022-12-18T01:08:08;102426.81;;;-3.17;85.47
8140;BME280;4111;50.972;7.072;2022-12-18T01:10:35;102425.97;;;-3.17;85.63
8140;BME280;4111;50.972;7.072;2022-12-18T01:13:01;102419.13;;;-3.09;85.98
8140;BME280;4111;50.972;7.072;2022-12-18T01:15:28;102416.72;;;-3.12;85.62
8140;BME280;4111;50.972;7.072;2022-12-18T01:17:54;102421.03;;;-3.11;85.81
8140;BME280;4111;50.972;7.072;2022-12-18T01:20:21;102419.13;;;-3.09;85.49
8140;BME280;4111;50.972;7.072;2022-12-18T01:22:47;102422.50;;;-3.07;85.65
8140;BME280;4111;50.972;7.072;2022-12-18T01:25:14;102424.91;;;-3.15;85.75
8140;BME280;4111;50.972;7.072;2022-12-18T01:27:40;102427.66;;;-3.16;85.14
8140;BME280;4111;50.972;7.072;2022-12-18T01:30:07;102424.69;;;-3.12;85.20
8140;BME280;4111;50.972;7.072;2022-12-18T01:32:34;102431.47;;;-3.08;85.27
8140;BME280;4111;50.972;7.072;2022-12-18T01:35:01;102426.81;;;-3.17;84.87
8140;BME280;4111;50.972;7.072;2022-12-18T01:37:28;102426.59;;;-3.14;85.14
8140;BME280;4111;50.972;7.072;2022-12-18T01:39:54;102421.28;;;-3.14;85.11
8140;BME280;4111;50.972;7.072;2022-12-18T01:42:22;102421.72;;;-3.20;84.50
8140;BME280;4111;50.972;7.072;2022-12-18T01:48:05;102428.06;;;-3.10;85.03
8140;BME280;4111;50.972;7.072;2022-12-18T01:50:38;102426.47;;;-3.12;85.10
8140;BME280;4111;50.972;7.072;2022-12-18T01:53:10;102421.03;;;-3.11;84.98
8140;BME280;4111;50.972;7.072;2022-12-18T01:55:42;102418.91;;;-3.06;85.26
8140;BME280;4111;50.972;7.072;2022-12-18T01:58:10;102418.66;;;-3.03;84.92
8140;BME280;4111;50.972;7.072;2022-12-18T02:00:36;102423.97;;;-3.03;85.29
8140;BME280;4111;50.972;7.072;2022-12-18T02:03:02;102414.78;;;-2.99;85.27
8140;BME280;4111;50.972;7.072;2022-12-18T02:10:59;102425.34;;;-3.21;84.94
8140;BME280;4111;50.972;7.072;2022-12-18T02:16:44;102433.72;;;-3.39;84.68
8140;BME280;4111;50.972;7.072;2022-12-18T02:19:32;102436.94;;;-3.46;84.35
8140;BME280;4111;50.972;7.072;2022-12-18T02:28:20;102424.38;;;-3.92;84.35
8140;BME280;4111;50.972;7.072;2022-12-18T02:30:49;102429.03;;;-3.96;84.39
8140;BME280;4111;50.972;7.072;2022-12-18T02:33:20;102432.63;;;-3.97;84.77
8140;BME280;4111;50.972;7.072;2022-12-18T02:35:52;102439.13;;;-4.01;85.14
8140;BME280;4111;50.972;7.072;2022-12-18T02:38:20;102429.69;;;-4.05;85.08
8140;BME280;4111;50.972;7.072;2022-12-18T02:40:48;102420.41;;;-4.24;85.05
8140;BME280;4111;50.972;7.072;2022-12-18T02:43:16;102409.91;;;-4.38;85.12
8140;BME280;4111;50.972;7.072;2022-12-18T02:45:54;102414.03;;;-4.34;85.33
8140;BME280;4111;50.972;7.072;2022-12-18T02:48:24;102414.84;;;-4.21;85.46
8140;BME280;4111;50.972;7.072;2022-12-18T02:51:08;102407.56;;;-4.30;85.29
8140;BME280;4111;50.972;7.072;2022-12-18T02:53:50;102396.75;;;-4.40;85.47
8140;BME280;4111;50.972;7.072;2022-12-18T02:56:29;102400.47;;;-4.42;85.33
8140;BME280;4111;50.972;7.072;2022-12-18T02:59:04;102407.47;;;-4.41;85.56
8140;BME280;4111;50.972;7.072;2022-12-18T03:01:44;102402.78;;;-4.50;85.73
8140;BME280;4111;50.972;7.072;2022-12-18T03:06:51;102402.78;;;-4.50;85.53
8140;BME280;4111;50.972;7.072;2022-12-18T03:09:37;102412.78;;;-4.54;86.03
8140;BME280;4111;50.972;7.072;2022-12-18T03:12:31;102405.22;;;-4.60;86.16
8140;BME280;4111;50.972;7.072;2022-12-18T03:15:26;102397.41;;;-4.62;86.05
8140;BME280;4111;50.972;7.072;2022-12-18T03:18:08;102395.19;;;-4.68;86.14
8140;BME280;4111;50.972;7.072;2022-12-18T03:20:37;102399.00;;;-4.72;85.69
8140;BME280;4111;50.972;7.072;2022-12-18T03:23:15;102398.66;;;-4.80;85.74
8140;BME280;4111;50.972;7.072;2022-12-18T03:25:44;102390.41;;;-4.88;85.82
8140;BME280;4111;50.972;7.072;2022-12-18T03:28:15;102385.31;;;-4.91;85.98
8140;BME280;4111;50.972;7.072;2022-12-18T03:30:44;102386.56;;;-4.97;86.08
8140;BME280;4111;50.972;7.072;2022-12-18T03:33:16;102382.44;;;-4.88;85.67
8140;BME280;4111;50.972;7.072;2022-12-18T03:35:46;102375.66;;;-4.92;85.95
8140;BME280;4111;50.972;7.072;2022-12-18T03:38:13;102372.28;;;-4.94;86.30
8140;BME280;4111;50.972;7.072;2022-12-18T03:46:29;102377.47;;;-4.93;86.19
8140;BME280;4111;50.972;7.072;2022-12-18T03:49:08;102380.22;;;-4.94;86.64
8140;BME280;4111;50.972;7.072;2022-12-18T03:51:42;102373.09;;;-4.94;86.67
8140;BME280;4111;50.972;7.072;2022-12-18T03:54:10;102382.31;;;-5.00;86.42
8140;BME280;4111;50.972;7.072;2022-12-18T03:56:45;102378.72;;;-4.99;86.56
8140;BME280;4111;50.972;7.072;2022-12-18T03:59:15;102375.16;;;-4.97;86.41
8140;BME280;4111;50.972;7.072;2022-12-18T04:01:46;102364.94;;;-5.04;86.14
8140;BME280;4111;50.972;7.072;2022-12-18T04:04:15;102361.69;;;-5.07;86.07
8140;BME280;4111;50.972;7.072;2022-12-18T04:06:43;102362.94;;;-5.13;86.39
8140;BME280;4111;50.972;7.072;2022-12-18T04:09:11;102359.53;;;-5.15;86.49
8140;BME280;4111;50.972;7.072;2022-12-18T04:11:38;102359.53;;;-5.15;86.58
8140;BME280;4111;50.972;7.072;2022-12-18T04:14:05;102362.50;;;-5.07;86.58
8140;BME280;4111;50.972;7.072;2022-12-18T04:16:32;102357.88;;;-5.03;86.76
8140;BME280;4111;50.972;7.072;2022-12-18T04:18:59;102353.19;;;-5.12;86.71
8140;BME280;4111;50.972;7.072;2022-12-18T04:21:25;102359.13;;;-5.09;87.08
8140;BME280;4111;50.972;7.072;2022-12-18T04:23:52;102351.69;;;-5.04;86.93
8140;BME280;4111;50.972;7.072;2022-12-18T04:26:18;102363.34;;;-5.06;87.18
8140;BME280;4111;50.972;7.072;2022-12-18T04:28:45;102353.59;;;-5.06;87.16
8140;BME280;4111;50.972;7.072;2022-12-18T04:31:12;102359.78;;;-5.05;87.32
8140;BME280;4111;50.972;7.072;2022-12-18T04:33:39;102360.81;;;-5.08;86.87
8140;BME280;4111;50.972;7.072;2022-12-18T04:36:06;102375.84;;;-5.08;86.79
8140;BME280;4111;50.972;7.072;2022-12-18T04:38:33;102367.16;;;-5.23;86.55
8140;BME280;4111;50.972;7.072;2022-12-18T04:40:59;102364.63;;;-5.25;86.85
8140;BME280;4111;50.972;7.072;2022-12-18T04:43:26;102367.16;;;-5.23;86.76
8140;BME280;4111;50.972;7.072;2022-12-18T04:45:52;102366.09;;;-5.21;86.62
8140;BME280;4111;50.972;7.072;2022-12-18T04:48:20;102376.13;;;-5.26;86.65
8140;BME280;4111;50.972;7.072;2022-12-18T04:50:47;102371.34;;;-5.33;86.49
8140;BME280;4111;50.972;7.072;2022-12-18T04:53:14;102377.16;;;-5.41;86.16
8140;BME280;4111;50.972;7.072;2022-12-18T04:55:40;102368.38;;;-5.42;86.27
8140;BME280;4111;50.972;7.072;2022-12-18T04:58:07;102363.72;;;-5.51;86.60
8140;BME280;4111;50.972;7.072;2022-12-18T05:00:34;102360.28;;;-5.53;86.46
8140;BME280;4111;50.972;7.072;2022-12-18T05:03:01;102360.09;;;-5.50;86.81
8140;BME280;4111;50.972;7.072;2022-12-18T05:05:28;102345.94;;;-5.49;86.41
8140;BME280;4111;50.972;7.072;2022-12-18T05:07:55;102357.34;;;-5.48;86.62
8140;BME280;4111;50.972;7.072;2022-12-18T05:10:21;102358.63;;;-5.41;86.70
8140;BME280;4111;50.972;7.072;2022-12-18T05:12:48;102355.88;;;-5.40;86.93
8140;BME280;4111;50.972;7.072;2022-12-18T05:15:31;102352.25;;;-5.51;86.84
8140;BME280;4111;50.972;7.072;2022-12-18T05:17:58;102343.47;;;-5.52;86.84
8140;BME280;4111;50.972;7.072;2022-12-18T05:20:26;102338.91;;;-5.50;86.86
8140;BME280;4111;50.972;7.072;2022-12-18T05:22:53;102338.09;;;-5.50;86.69
8140;BME280;4111;50.972;7.072;2022-12-18T05:25:21;102338.50;;;-5.44;86.74
8140;BME280;4111;50.972;7.072;2022-12-18T05:27:48;102348.69;;;-5.38;86.68
8140;BME280;4111;50.972;7.072;2022-12-18T05:30:15;102338.97;;;-5.37;86.50
8140;BME280;4111;50.972;7.072;2022-12-18T05:32:42;102347.09;;;-5.40;86.79
8140;BME280;4111;50.972;7.072;2022-12-18T05:35:12;102347.59;;;-5.48;86.82
8140;BME280;4111;50.972;7.072;2022-12-18T05:37:38;102347.50;;;-5.46;86.56
8140;BME280;4111;50.972;7.072;2022-12-18T05:40:09;102348.56;;;-5.49;86.50
8140;BME280;4111;50.972;7.072;2022-12-18T05:42:36;102352.16;;;-5.50;86.82
8140;BME280;4111;50.972;7.072;2022-12-18T05:45:04;102354.38;;;-5.44;86.67
8140;BME280;4111;50.972;7.072;2022-12-18T05:47:30;102360.00;;;-5.48;86.75
8140;BME280;4111;50.972;7.072;2022-12-18T05:49:57;102368.38;;;-5.42;86.80
8140;BME280;4111;50.972;7.072;2022-12-18T05:52:24;102366.69;;;-5.43;87.13
8140;BME280;4111;50.972;7.072;2022-12-18T05:54:50;102362.88;;;-5.39;86.90
8140;BME280;4111;50.972;7.072;2022-12-18T05:57:17;102364.97;;;-5.44;87.20
8140;BME280;4111;50.972;7.072;2022-12-18T05:59:43;102371.03;;;-5.42;87.00
8140;BME280;4111;50.972;7.072;2022-12-18T06:02:10;102374.50;;;-5.41;87.34
8140;BME280;4111;50.972;7.072;2022-12-18T06:04:36;102384.47;;;-5.45;86.94
8140;BME280;4111;50.972;7.072;2022-12-18T06:07:03;102387.97;;;-5.44;86.64
8140;BME280;4111;50.972;7.072;2022-12-18T06:09:30;102399.06;;;-5.52;86.62
8140;BME280;4111;50.972;7.072;2022-12-18T06:11:56;102398.31;;;-5.54;86.82
8140;BME280;4111;50.972;7.072;2022-12-18T06:14:22;102395.47;;;-5.51;86.97
8140;BME280;4111;50.972;7.072;2022-12-18T06:16:50;102398.88;;;-5.49;87.11
8140;BME280;4111;50.972;7.072;2022-12-18T06:19:18;102401.09;;;-5.43;86.84
8140;BME280;4111;50.972;7.072;2022-12-18T06:21:45;102411.34;;;-5.51;86.28
8140;BME280;4111;50.972;7.072;2022-12-18T06:24:11;102411.34;;;-5.51;86.71
8140;BME280;4111;50.972;7.072;2022-12-18T06:26:38;102419.63;;;-5.43;86.58
8140;BME280;4111;50.972;7.072;2022-12-18T06:29:05;102426.22;;;-5.35;86.50
8140;BME280;4111;50.972;7.072;2022-12-18T06:31:31;102424.72;;;-5.40;86.30
8140;BME280;4111;50.972;7.072;2022-12-18T06:33:58;102417.41;;;-5.36;86.23
8140;BME280;4111;50.972;7.072;2022-12-18T06:36:24;102415.63;;;-5.35;86.01
8140;BME280;4111;50.972;7.072;2022-12-18T06:38:51;102424.47;;;-5.49;86.16
8140;BME280;4111;50.972;7.072;2022-12-18T06:41:20;102411.88;;;-5.46;86.67
8140;BME280;4111;50.972;7.072;2022-12-18T06:43:47;102409.97;;;-5.44;86.35
8140;BME280;4111;50.972;7.072;2022-12-18T06:46:13;102394.09;;;-5.44;86.86
8140;BME280;4111;50.972;7.072;2022-12-18T06:48:40;102392.81;;;-5.51;86.98
8140;BME280;4111;50.972;7.072;2022-12-18T06:51:06;102395.81;;;-5.43;86.88
8140;BME280;4111;50.972;7.072;2022-12-18T06:53:33;102403.75;;;-5.43;87.13
8140;BME280;4111;50.972;7.072;2022-12-18T06:56:02;102398.66;;;-5.46;87.03
8140;BME280;4111;50.972;7.072;2022-12-18T06:58:35;102394.41;;;-5.48;87.03
8140;BME280;4111;50.972;7.072;2022-12-18T07:01:03;102407.94;;;-5.53;87.60
8140;BME280;4111;50.972;7.072;2022-12-18T07:03:31;102401.03;;;-5.55;87.53
8140;BME280;4111;50.972;7.072;2022-12-18T07:05:58;102404.16;;;-5.49;87.56
8140;BME280;4111;50.972;7.072;2022-12-18T07:08:24;102405.84;;;-5.48;87.54
8140;BME280;4111;50.972;7.072;2022-12-18T07:10:51;102391.84;;;-5.50;87.84
8140;BME280;4111;50.972;7.072;2022-12-18T07:13:22;102396.75;;;-5.44;87.91
8140;BME280;4111;50.972;7.072;2022-12-18T07:15:49;102391.03;;;-5.38;88.17
8140;BME280;4111;50.972;7.072;2022-12-18T07:18:15;102391.28;;;-5.28;88.58
8140;BME280;4111;50.972;7.072;2022-12-18T07:20:41;102403.16;;;-5.21;88.36
8140;BME280;4111;50.972;7.072;2022-12-18T07:23:08;102402.34;;;-5.21;88.16
8140;BME280;4111;50.972;7.072;2022-12-18T07:25:35;102400.72;;;-5.24;87.97
8140;BME280;4111;50.972;7.072;2022-12-18T07:28:03;102405.72;;;-5.19;87.45
8140;BME280;4111;50.972;7.072;2022-12-18T07:30:29;102399.31;;;-5.29;87.90
8140;BME280;4111;50.972;7.072;2022-12-18T07:32:56;102391.69;;;-5.34;87.72
8140;BME280;4111;50.972;7.072;2022-12-18T07:35:22;102389.47;;;-5.27;87.58
8140;BME280;4111;50.972;7.072;2022-12-18T07:37:50;102388.94;;;-5.32;87.35
8140;BME280;4111;50.972;7.072;2022-12-18T07:40:17;102383.19;;;-5.39;87.46
8140;BME280;4111;50.972;7.072;2022-12-18T07:42:43;102382.34;;;-5.40;87.46
8140;BME280;4111;50.972;7.072;2022-12-18T07:45:10;102381.19;;;-5.35;87.58
8140;BME280;4111;50.972;7.072;2022-12-18T07:47:37;102376.88;;;-5.36;87.92
8140;BME280;4111;50.972;7.072;2022-12-18T07:50:04;102372.84;;;-5.29;87.39
8140;BME280;4111;50.972;7.072;2022-12-18T07:52:31;102367.78;;;-5.20;87.47
8140;BME280;4111;50.972;7.072;2022-12-18T07:54:58;102363.13;;;-5.16;87.71
8140;BME280;4111;50.972;7.072;2022-12-18T07:57:24;102374.91;;;-5.07;87.29
8140;BME280;4111;50.972;7.072;2022-12-18T08:00:11;102381.69;;;-5.03;87.66
8140;BME280;4111;50.972;7.072;2022-12-18T08:02:38;102380.97;;;-5.05;87.36
8140;BME280;4111;50.972;7.072;2022-12-18T08:05:05;102377.25;;;-5.03;87.09
8140;BME280;4111;50.972;7.072;2022-12-18T08:07:32;102371.31;;;-4.93;87.54
8140;BME280;4111;50.972;7.072;2022-12-18T08:09:58;102374.06;;;-4.95;87.16
8140;BME280;4111;50.972;7.072;2022-12-18T08:12:25;102358.47;;;-5.00;87.12
8140;BME280;4111;50.972;7.072;2022-12-18T08:14:51;102353.81;;;-4.96;87.17
8140;BME280;4111;50.972;7.072;2022-12-18T08:17:19;102355.09;;;-4.89;87.39
8140;BME280;4111;50.972;7.072;2022-12-18T08:19:46;102351.19;;;-4.83;87.57
8140;BME280;4111;50.972;7.072;2022-12-18T08:22:12;102358.47;;;-4.74;87.71
8140;BME280;4111;50.972;7.072;2022-12-18T08:24:39;102351.28;;;-4.59;87.58
8140;BME280;4111;50.972;7.072;2022-12-18T08:27:05;102348.94;;;-4.51;87.59
8140;BME280;4111;50.972;7.072;2022-12-18T08:29:52;102328.47;;;-4.49;87.06
8140;BME280;4111;50.972;7.072;2022-12-18T08:32:18;102329.81;;;-4.43;87.57
8140;BME280;4111;50.972;7.072;2022-12-18T08:34:45;102320.06;;;-4.30;87.72
8140;BME280;4111;50.972;7.072;2022-12-18T08:37:11;102322.78;;;-4.19;87.33
8140;BME280;4111;50.972;7.072;2022-12-18T08:39:38;102314.88;;;-4.07;87.59
8140;BME280;4111;50.972;7.072;2022-12-18T08:42:04;102319.00;;;-4.03;87.29
8140;BME280;4111;50.972;7.072;2022-12-18T08:44:49;102315.88;;;-3.97;87.68
8140;BME280;4111;50.972;7.072;2022-12-18T08:47:16;102319.13;;;-3.81;87.43
8140;BME280;4111;50.972;7.072;2022-12-18T08:49:42;102322.06;;;-3.72;87.67
8140;BME280;4111;50.972;7.072;2022-12-18T08:52:09;102333.69;;;-3.62;87.46
8140;BME280;4111;50.972;7.072;2022-12-18T08:54:35;102330.09;;;-3.50;87.81
8140;BME280;4111;50.972;7.072;2022-12-18T08:57:02;102329.06;;;-3.36;87.45
8140;BME280;4111;50.972;7.072;2022-12-18T08:59:28;102325.03;;;-3.17;87.65
8140;BME280;4111;50.972;7.072;2022-12-18T09:01:55;102313.91;;;-3.11;87.32
8140;BME280;4111;50.972;7.072;2022-12-18T09:04:22;102312.72;;;-3.07;86.98
8140;BME280;4111;50.972;7.072;2022-12-18T09:06:48;102318.16;;;-2.97;86.91
8140;BME280;4111;50.972;7.072;2022-12-18T09:09:15;102310.94;;;-2.84;86.67
8140;BME280;4111;50.972;7.072;2022-12-18T09:11:41;102311.41;;;-2.68;86.27
8140;BME280;4111;50.972;7.072;2022-12-18T09:14:08;102311.66;;;-2.60;86.00
8140;BME280;4111;50.972;7.072;2022-12-18T09:16:35;102306.06;;;-2.45;86.05
8140;BME280;4111;50.972;7.072;2022-12-18T09:19:03;102314.06;;;-2.34;85.93
8140;BME280;4111;50.972;7.072;2022-12-18T09:21:32;102299.03;;;-2.24;85.24
8140;BME280;4111;50.972;7.072;2022-12-18T09:24:02;102317.66;;;-2.12;85.05
8140;BME280;4111;50.972;7.072;2022-12-18T09:26:32;102315.19;;;-2.04;84.45
8140;BME280;4111;50.972;7.072;2022-12-18T09:28:58;102305.38;;;-2.04;84.22
8140;BME280;4111;50.972;7.072;2022-12-18T09:31:25;102295.91;;;-1.85;83.82
8140;BME280;4111;50.972;7.072;2022-12-18T09:33:51;102284.34;;;-1.74;83.52
8140;BME280;4111;50.972;7.072;2022-12-18T09:36:19;102284.00;;;-1.70;82.90
8140;BME280;4111;50.972;7.072;2022-12-18T09:38:47;102293.75;;;-1.59;82.92
8140;BME280;4111;50.972;7.072;2022-12-18T09:43:49;102290.19;;;-1.27;82.80
8140;BME280;4111;50.972;7.072;2022-12-18T09:46:23;102289.47;;;-1.29;82.07
8140;BME280;4111;50.972;7.072;2022-12-18T09:48:54;102288.69;;;-1.20;81.95
8140;BME280;4111;50.972;7.072;2022-12-18T09:51:28;102278.22;;;-1.12;81.79
8140;BME280;4111;50.972;7.072;2022-12-18T09:54:02;102268.25;;;-1.10;81.16
8140;BME280;4111;50.972;7.072;2022-12-18T09:56:35;102268.44;;;-1.02;80.68
8140;BME280;4111;50.972;7.072;2022-12-18T09:59:04;102272.84;;;-0.91;81.01
8140;BME280;4111;50.972;7.072;2022-12-18T10:01:31;102278.19;;;-0.81;80.73
8140;BME280;4111;50.972;7.072;2022-12-18T10:04:09;102274.31;;;-0.77;80.67
8140;BME280;4111;50.972;7.072;2022-12-18T10:20:45;102259.78;;;-0.53;78.91
8140;BME280;4111;50.972;7.072;2022-12-18T10:23:19;102245.00;;;-0.57;78.28
8140;BME280;4111;50.972;7.072;2022-12-18T10:28:25;102232.97;;;-0.52;77.92
8140;BME280;4111;50.972;7.072;2022-12-18T10:30:52;102230.31;;;-0.42;77.97
8140;BME280;4111;50.972;7.072;2022-12-18T10:33:21;102235.38;;;-0.39;77.36
8140;BME280;4111;50.972;7.072;2022-12-18T10:35:51;102227.22;;;-0.28;77.61
8140;BME280;4111;50.972;7.072;2022-12-18T10:51:29;102223.19;;;0.07;76.38
8140;BME280;4111;50.972;7.072;2022-12-18T10:56:29;102222.44;;;0.54;78.11
8140;BME280;4111;50.972;7.072;2022-12-18T10:59:05;102202.28;;;1.34;79.54
8140;BME280;4111;50.972;7.072;2022-12-18T11:01:54;102211.97;;;0.80;75.37
8140;BME280;4111;50.972;7.072;2022-12-18T11:09:23;102206.72;;;0.31;74.54
8140;BME280;4111;50.972;7.072;2022-12-18T11:11:52;102200.09;;;0.35;74.60
8140;BME280;4111;50.972;7.072;2022-12-18T11:14:26;102206.19;;;0.28;74.87
8140;BME280;4111;50.972;7.072;2022-12-18T11:16:54;102197.03;;;0.30;74.29
8140;BME280;4111;50.972;7.072;2022-12-18T11:19:41;102204.75;;;0.33;74.43
8140;BME280;4111;50.972;7.072;2022-12-18T11:22:26;102198.44;;;0.34;74.07
8140;BME280;4111;50.972;7.072;2022-12-18T11:28:02;102201.38;;;0.31;73.52
8140;BME280;4111;50.972;7.072;2022-12-18T11:30:34;102198.44;;;0.34;73.86
8140;BME280;4111;50.972;7.072;2022-12-18T11:33:15;102207.28;;;0.35;73.71
8140;BME280;4111;50.972;7.072;2022-12-18T11:35:51;102191.25;;;0.35;73.58
8140;BME280;4111;50.972;7.072;2022-12-18T11:38:23;102194.94;;;0.34;73.27
8140;BME280;4111;50.972;7.072;2022-12-18T11:40:57;102180.16;;;0.30;73.15
8140;BME280;4111;50.972;7.072;2022-12-18T11:43:28;102166.50;;;0.33;73.09
8140;BME280;4111;50.972;7.072;2022-12-18T11:46:11;102170.56;;;0.37;73.20
8140;BME280;4111;50.972;7.072;2022-12-18T11:48:49;102184.53;;;0.21;72.95
8140;BME280;4111;50.972;7.072;2022-12-18T11:51:32;102176.22;;;0.24;73.35
8140;BME280;4111;50.972;7.072;2022-12-18T11:54:01;102185.34;;;0.22;73.02
8140;BME280;4111;50.972;7.072;2022-12-18T11:57:30;102166.25;;;0.16;73.27
8140;BME280;4111;50.972;7.072;2022-12-18T12:08:44;102149.97;;;0.00;74.16
8140;BME280;4111;50.972;7.072;2022-12-18T12:11:37;102167.41;;;0.04;73.68
8140;BME280;4111;50.972;7.072;2022-12-18T12:22:43;102158.41;;;-0.05;74.52
8140;BME280;4111;50.972;7.072;2022-12-18T12:27:58;102158.13;;;-0.11;74.34
8140;BME280;4111;50.972;7.072;2022-12-18T12:30:38;102152.50;;;-0.08;74.76
8140;BME280;4111;50.972;7.072;2022-12-18T12:38:58;102122.72;;;-0.13;74.86
8140;BME280;4111;50.972;7.072;2022-12-18T12:41:31;102119.75;;;-0.10;74.94
8140;BME280;4111;50.972;7.072;2022-12-18T12:44:47;102112.88;;;-0.13;75.24
8140;BME280;4111;50.972;7.072;2022-12-18T12:47:38;102130.31;;;-0.09;75.38
8140;BME280;4111;50.972;7.072;2022-12-18T12:50:14;102124.00;;;-0.08;74.92
8140;BME280;4111;50.972;7.072;2022-12-18T12:52:50;102126.94;;;-0.21;74.73
8140;BME280;4111;50.972;7.072;2022-12-18T12:55:21;102139.31;;;-0.19;74.83
8140;BME280;4111;50.972;7.072;2022-12-18T13:00:25;102124.97;;;-0.28;74.62
8140;BME280;4111;50.972;7.072;2022-12-18T13:03:13;102110.34;;;-0.24;74.94
8140;BME280;4111;50.972;7.072;2022-12-18T13:05:54;102114.84;;;-0.25;74.69
8140;BME280;4111;50.972;7.072;2022-12-18T13:08:26;102096.88;;;-0.23;75.11
8140;BME280;4111;50.972;7.072;2022-12-18T13:10:58;102101.50;;;-0.54;75.68
8140;BME280;4111;50.972;7.072;2022-12-18T13:13:53;102117.94;;;-1.28;74.71
8140;BME280;4111;50.972;7.072;2022-12-18T13:16:24;102112.38;;;-1.56;75.34
8140;BME280;4111;50.972;7.072;2022-12-18T13:18:53;102112.78;;;-1.82;75.96
8140;BME280;4111;50.972;7.072;2022-12-18T13:21:31;102121.59;;;-2.02;76.41
8140;BME280;4111;50.972;7.072;2022-12-18T13:26:48;102120.44;;;-1.67;77.85
8140;BME280;4111;50.972;7.072;2022-12-18T13:29:44;102123.53;;;-1.31;78.46
8140;BME280;4111;50.972;7.072;2022-12-18T13:32:23;102116.66;;;-0.84;78.46
8140;BME280;4111;50.972;7.072;2022-12-18T13:37:52;102120.63;;;-0.49;77.19
8140;BME280;4111;50.972;7.072;2022-12-18T13:51:28;102086.19;;;-0.32;75.57
8140;BME280;4111;50.972;7.072;2022-12-18T13:53:58;102096.03;;;-0.33;75.50
8140;BME280;4111;50.972;7.072;2022-12-18T13:56:31;102089.88;;;-0.33;75.23
8140;BME280;4111;50.972;7.072;2022-12-18T13:59:14;102092.13;;;-0.38;75.16
8140;BME280;4111;50.972;7.072;2022-12-18T14:04:28;102096.88;;;-0.42;74.88
8140;BME280;4111;50.972;7.072;2022-12-18T14:07:02;102080.03;;;-0.33;74.94
8140;BME280;4111;50.972;7.072;2022-12-18T14:09:35;102096.31;;;-0.36;75.02
8140;BME280;4111;50.972;7.072;2022-12-18T14:12:03;102090.97;;;-0.36;74.95
8140;BME280;4111;50.972;7.072;2022-12-18T14:14:49;102093.78;;;-0.28;75.40
8140;BME280;4111;50.972;7.072;2022-12-18T14:17:20;102078.34;;;-0.34;75.23
8140;BME280;4111;50.972;7.072;2022-12-18T14:19:49;102068.09;;;-0.29;75.22
8140;BME280;4111;50.972;7.072;2022-12-18T14:22:21;102072.16;;;-0.25;74.74
8140;BME280;4111;50.972;7.072;2022-12-18T14:27:44;102073.84;;;-0.33;74.39
8140;BME280;4111;50.972;7.072;2022-12-18T14:33:10;102067.38;;;-0.31;75.14
8140;BME280;4111;50.972;7.072;2022-12-18T14:35:39;102064.59;;;-0.39;74.63
8140;BME280;4111;50.972;7.072;2022-12-18T14:38:28;102060.66;;;-0.35;74.88
8140;BME280;4111;50.972;7.072;2022-12-18T14:41:21;102052.66;;;-0.35;75.41
8140;BME280;4111;50.972;7.072;2022-12-18T14:43:47;102057.28;;;-0.37;74.97
8140;BME280;4111;50.972;7.072;2022-12-18T14:46:43;102045.19;;;-0.31;74.98
8140;BME280;4111;50.972;7.072;2022-12-18T14:49:33;102036.75;;;-0.36;74.85
8140;BME280;4111;50.972;7.072;2022-12-18T14:52:05;102034.53;;;-0.41;75.21
8140;BME280;4111;50.972;7.072;2022-12-18T14:54:34;102034.38;;;-0.40;75.22
8140;BME280;4111;50.972;7.072;2022-12-18T14:57:06;102039.19;;;-0.43;75.17
8140;BME280;4111;50.972;7.072;2022-12-18T14:59:43;102031.75;;;-0.49;75.46
8140;BME280;4111;50.972;7.072;2022-12-18T15:04:42;102038.75;;;-0.48;74.94
8140;BME280;4111;50.972;7.072;2022-12-18T15:07:21;102027.81;;;-0.45;75.25
8140;BME280;4111;50.972;7.072;2022-12-18T15:10:12;102031.44;;;-0.46;74.88
8140;BME280;4111;50.972;7.072;2022-12-18T15:20:41;102028.63;;;-0.54;75.26
8140;BME280;4111;50.972;7.072;2022-12-18T15:23:24;102031.75;;;-0.59;74.81
8140;BME280;4111;50.972;7.072;2022-12-18T15:26:10;102016.84;;;-0.62;75.11
8140;BME280;4111;50.972;7.072;2022-12-18T15:28:45;102004.91;;;-0.57;75.22
8140;BME280;4111;50.972;7.072;2022-12-18T15:33:59;102028.38;;;-0.61;75.31
8140;BME280;4111;50.972;7.072;2022-12-18T15:36:28;102019.38;;;-0.60;75.19
8140;BME280;4111;50.972;7.072;2022-12-18T15:38:56;102027.81;;;-0.65;75.37
8140;BME280;4111;50.972;7.072;2022-12-18T15:41:35;102034.13;;;-0.66;75.75
8140;BME280;4111;50.972;7.072;2022-12-18T15:44:15;102026.41;;;-0.69;75.60
8140;BME280;4111;50.972;7.072;2022-12-18T15:46:46;102024.72;;;-0.70;75.70
8140;BME280;4111;50.972;7.072;2022-12-18T15:49:12;102024.16;;;-0.64;75.57